createdAt,value
2023-03-02T00:02:37.472Z,97.92
2023-03-02T00:05:24.360Z,98.26
2023-03-02T00:07:57.503Z,98.01
2023-03-02T00:10:45.393Z,97.98
2023-03-02T00:13:26.386Z,98.04
2023-03-02T00:16:20.486Z,98.29
2023-03-02T00:19:07.389Z,98.39
2023-03-02T00:21:41.303Z,98.39
2023-03-02T00:24:28.391Z,98.25
2023-03-02T00:27:01.478Z,98.12
2023-03-02T00:29:48.409Z,98.40
2023-03-02T00:32:28.481Z,98.43
2023-03-02T00:35:22.436Z,98.28
2023-03-02T00:38:16.357Z,97.97
2023-03-02T00:41:10.401Z,98.32
2023-03-02T00:43:58.374Z,98.28
2023-03-02T00:46:39.488Z,98.04
2023-03-02T00:49:26.393Z,98.19
2023-03-02T00:51:59.686Z,98.14
2023-03-02T00:54:46.379Z,98.24
2023-03-02T00:57:19.527Z,98.40
2023-03-02T01:00:06.385Z,98.74
2023-03-02T01:02:44.349Z,98.49
2023-03-02T01:05:31.422Z,98.76
2023-03-02T01:08:04.486Z,98.58
2023-03-02T01:10:53.912Z,98.67
2023-03-02T01:13:27.472Z,98.50
2023-03-02T01:16:14.467Z,99.01
2023-03-02T01:18:47.529Z,98.74
2023-03-02T01:21:34.384Z,98.85
2023-03-02T01:24:07.501Z,99.05
2023-03-02T01:26:54.394Z,99.21
2023-03-02T01:29:35.415Z,99.16
2023-03-02T01:32:29.455Z,99.00
2023-03-02T01:35:16.394Z,98.92
2023-03-02T01:37:49.611Z,99.22
2023-03-02T01:40:36.846Z,99.15
2023-03-02T01:43:19.514Z,99.14
2023-03-02T01:46:10.437Z,99.33
2023-03-02T01:49:18.391Z,99.52
2023-03-02T01:52:05.407Z,99.21
2023-03-02T01:54:38.521Z,99.50
2023-03-02T01:57:31.743Z,99.41
2023-03-02T02:00:19.535Z,99.53
2023-03-02T02:03:18.432Z,99.23
2023-03-02T02:06:12.452Z,99.21
2023-03-02T02:08:45.616Z,99.14
2023-03-02T02:11:32.434Z,99.11
2023-03-02T02:14:15.405Z,99.24
2023-03-02T02:17:09.425Z,99.46
2023-03-02T02:20:26.649Z,99.39
2023-03-02T02:23:20.523Z,99.51
2023-03-02T02:26:44.415Z,99.56
2023-03-02T02:29:52.407Z,99.82
2023-03-02T02:32:44.561Z,99.57
2023-03-02T02:35:36.499Z,99.45
2023-03-02T02:38:34.507Z,99.65
2023-03-02T02:41:28.455Z,99.66
2023-03-02T02:44:09.428Z,99.77
2023-03-02T02:46:56.413Z,99.69
2023-03-02T02:49:42.538Z,99.90
2023-03-02T02:52:32.411Z,99.92
2023-03-02T02:55:05.616Z,99.74
2023-03-02T02:57:52.412Z,100.00
2023-03-02T03:00:28.509Z,99.85
2023-03-02T03:03:35.447Z,99.83
2023-03-02T03:06:12.584Z,99.95
2023-03-02T03:09:05.430Z,99.89
2023-03-02T03:11:41.561Z,99.78
2023-03-02T03:14:35.422Z,100.00
2023-03-02T03:17:19.439Z,99.89
2023-03-02T03:20:13.428Z,100.00
2023-03-02T03:23:00.436Z,100.00
2023-03-02T03:25:35.068Z,100.00
2023-03-02T03:28:21.518Z,100.00
2023-03-02T03:30:54.635Z,100.00
2023-03-02T03:33:41.420Z,100.00
2023-03-02T03:36:14.567Z,100.00
2023-03-02T03:39:01.496Z,100.00
2023-03-02T03:41:34.592Z,99.73
2023-03-02T03:44:21.415Z,99.97
2023-03-02T03:46:54.535Z,99.95
2023-03-02T03:49:44.454Z,100.00
2023-03-02T03:52:17.522Z,100.00
2023-03-02T03:55:07.440Z,100.00
2023-03-02T03:57:47.440Z,100.00
2023-03-02T04:00:41.431Z,100.00
2023-03-02T04:03:28.438Z,100.00
2023-03-02T04:06:08.429Z,100.00
2023-03-02T04:09:02.480Z,100.00
2023-03-02T04:11:51.439Z,100.00
2023-03-02T04:14:26.626Z,100.00
2023-03-02T04:17:13.429Z,100.00
2023-03-02T04:19:46.563Z,100.00
2023-03-02T04:22:33.436Z,100.00
2023-03-02T04:25:06.566Z,100.00
2023-03-02T04:27:55.436Z,100.00
2023-03-02T04:30:33.259Z,100.00
2023-03-02T04:33:20.468Z,100.00
2023-03-02T04:36:01.590Z,100.00
2023-03-02T04:38:55.504Z,100.00
2023-03-02T04:41:49.447Z,100.00
2023-03-02T04:44:36.439Z,100.00
2023-03-02T04:47:09.609Z,100.00
2023-03-02T04:50:01.454Z,100.00
2023-03-02T04:52:41.657Z,100.00
2023-03-02T04:55:37.510Z,100.00
2023-03-02T04:58:24.432Z,100.00
2023-03-02T05:01:02.177Z,100.00
2023-03-02T05:03:48.465Z,100.00
2023-03-02T05:06:21.942Z,100.00
2023-03-02T05:09:08.502Z,100.00
2023-03-02T05:11:48.472Z,100.00
2023-03-02T05:14:45.778Z,100.00
2023-03-02T05:17:32.449Z,100.00
2023-03-02T05:20:07.404Z,100.00
2023-03-02T05:22:54.478Z,100.00
2023-03-02T05:25:35.525Z,100.00
2023-03-02T05:28:30.837Z,100.00
2023-03-02T05:31:25.465Z,100.00
2023-03-02T05:34:05.515Z,100.00
2023-03-02T05:36:59.516Z,100.00
2023-03-02T05:39:53.543Z,100.00
2023-03-02T05:42:47.525Z,100.00
2023-03-02T05:45:45.510Z,100.00
2023-03-02T05:48:21.612Z,100.00
2023-03-02T05:51:08.483Z,100.00
2023-03-02T05:53:41.665Z,100.00
2023-03-02T05:56:29.516Z,100.00
2023-03-02T05:59:02.647Z,100.00
2023-03-02T06:01:49.484Z,100.00
2023-03-02T06:04:22.631Z,100.00
2023-03-02T06:07:09.511Z,100.00
2023-03-02T06:09:42.572Z,100.00
2023-03-02T06:12:29.511Z,100.00
2023-03-02T06:15:02.650Z,100.00
2023-03-02T06:17:49.521Z,100.00
2023-03-02T06:20:30.483Z,100.00
2023-03-02T06:23:20.477Z,100.00
2023-03-02T06:25:53.706Z,100.00
2023-03-02T06:28:52.037Z,100.00
2023-03-02T06:31:26.673Z,100.00
2023-03-02T06:34:13.517Z,100.00
2023-03-02T06:36:53.530Z,100.00
2023-03-02T06:39:47.515Z,100.00
2023-03-02T06:42:34.471Z,100.00
2023-03-02T06:45:07.661Z,100.00
2023-03-02T06:47:54.536Z,99.87
2023-03-02T06:50:28.275Z,99.73
2023-03-02T06:53:14.595Z,99.55
2023-03-02T06:55:47.670Z,99.03
2023-03-02T06:58:34.547Z,99.11
2023-03-02T07:01:14.560Z,98.77
2023-03-02T07:04:01.563Z,98.28
2023-03-02T07:06:34.691Z,98.30
2023-03-02T07:09:21.522Z,98.39
2023-03-02T07:11:55.613Z,98.05
2023-03-02T07:14:43.512Z,97.50
2023-03-02T07:17:16.640Z,97.79
2023-03-02T07:20:03.512Z,97.53
2023-03-02T07:22:43.511Z,97.87
2023-03-02T07:25:37.513Z,97.58
2023-03-02T07:28:31.513Z,96.95
2023-03-02T07:31:18.632Z,97.45
2023-03-02T07:33:58.541Z,97.27
2023-03-02T07:36:45.514Z,97.08
2023-03-02T07:39:18.672Z,96.60
2023-03-02T07:42:06.532Z,96.14
2023-03-02T07:44:46.538Z,95.36
2023-03-02T07:47:40.541Z,93.66
2023-03-02T07:50:27.513Z,94.51
2023-03-02T07:53:07.543Z,94.51
2023-03-02T07:56:01.512Z,93.60
2023-03-02T07:58:48.547Z,93.10
2023-03-02T08:01:28.564Z,92.45
2023-03-02T08:04:16.838Z,90.61
2023-03-02T08:06:49.658Z,91.62
2023-03-02T08:09:36.529Z,89.74
2023-03-02T08:12:16.562Z,90.57
2023-03-02T08:15:10.538Z,90.35
2023-03-02T08:17:57.536Z,89.47
2023-03-02T08:20:31.614Z,90.36
2023-03-02T08:23:18.541Z,89.06
2023-03-02T08:25:51.658Z,88.78
2023-03-02T08:28:38.539Z,88.02
2023-03-02T08:31:12.763Z,88.39
2023-03-02T08:33:59.532Z,88.40
2023-03-02T08:36:32.897Z,88.28
2023-03-02T08:39:29.131Z,87.53
2023-03-02T08:42:15.566Z,86.87
2023-03-02T08:44:48.657Z,85.94
2023-03-02T08:47:35.526Z,85.25
2023-03-02T08:50:08.692Z,85.31
2023-03-02T08:52:55.523Z,84.71
2023-03-02T08:55:28.700Z,85.04
2023-03-02T08:58:15.520Z,84.58
2023-03-02T09:00:48.783Z,83.83
2023-03-02T09:03:35.516Z,81.88
2023-03-02T09:06:08.638Z,80.04
2023-03-02T09:08:55.535Z,79.36
2023-03-02T09:11:28.627Z,78.87
2023-03-02T09:14:15.547Z,76.20
2023-03-02T09:16:55.597Z,76.79
2023-03-02T09:19:48.580Z,74.78
2023-03-02T09:22:21.696Z,72.18
2023-03-02T09:25:09.537Z,69.71
2023-03-02T09:27:49.566Z,67.42
2023-03-02T09:30:43.531Z,68.22
2023-03-02T09:33:30.595Z,67.34
2023-03-02T09:36:03.655Z,68.90
2023-03-02T09:38:59.451Z,66.57
2023-03-02T09:42:12.612Z,67.45
2023-03-02T09:45:15.564Z,70.47
2023-03-02T09:48:10.604Z,68.53
2023-03-02T09:51:01.718Z,70.82
2023-03-02T09:54:07.568Z,70.35
2023-03-02T09:56:44.856Z,69.28
2023-03-02T09:59:51.613Z,69.16
2023-03-02T10:02:42.654Z,69.72
2023-03-02T10:05:54.575Z,69.10
2023-03-02T10:08:44.597Z,64.32
2023-03-02T10:11:45.703Z,68.20
2023-03-02T10:14:48.593Z,66.22
2023-03-02T10:18:09.630Z,66.43
2023-03-02T10:21:28.606Z,68.72
2023-03-02T10:24:55.447Z,68.14
2023-03-02T10:27:48.632Z,68.50
2023-03-02T10:30:43.772Z,68.21
2023-03-02T10:33:30.587Z,68.72
2023-03-02T10:36:03.709Z,70.92
2023-03-02T10:38:57.624Z,69.14
2023-03-02T10:41:50.713Z,68.67
2023-03-02T10:44:32.698Z,70.13
2023-03-02T10:47:45.617Z,68.43
2023-03-02T10:50:37.666Z,65.84
2023-03-02T10:53:32.605Z,67.39
2023-03-02T10:56:38.598Z,65.99
2023-03-02T10:59:48.685Z,65.87
2023-03-02T11:02:36.599Z,66.03
2023-03-02T11:05:41.616Z,66.48
2023-03-02T11:08:40.590Z,65.60
2023-03-02T11:11:30.736Z,63.80
2023-03-02T11:14:18.007Z,65.86
2023-03-02T11:17:03.308Z,65.32
2023-03-02T11:19:45.702Z,63.54
2023-03-02T11:22:39.623Z,65.18
2023-03-02T11:25:29.714Z,63.47
2023-03-02T11:28:21.618Z,62.74
2023-03-02T11:31:04.827Z,64.61
2023-03-02T11:34:16.718Z,62.73
2023-03-02T11:37:07.746Z,63.32
2023-03-02T11:39:55.950Z,61.52
2023-03-02T11:42:39.753Z,61.77
2023-03-02T11:45:33.701Z,63.20
2023-03-02T11:48:31.628Z,61.76
2023-03-02T11:51:23.133Z,62.86
2023-03-02T11:54:08.741Z,59.88
2023-03-02T11:56:56.663Z,62.29
2023-03-02T11:59:37.630Z,62.54
2023-03-02T12:02:25.637Z,60.20
2023-03-02T12:05:19.711Z,62.12
2023-03-02T12:08:16.629Z,63.98
2023-03-02T12:11:25.631Z,63.41
2023-03-02T12:14:05.619Z,62.35
2023-03-02T12:17:04.042Z,64.50
2023-03-02T12:19:51.632Z,63.37
2023-03-02T12:22:40.232Z,63.31
2023-03-02T12:25:26.752Z,63.12
2023-03-02T12:28:03.356Z,65.54
2023-03-02T12:30:49.675Z,62.55
2023-03-02T12:33:27.730Z,63.86
2023-03-02T12:36:21.667Z,63.92
2023-03-02T12:39:15.668Z,64.56
2023-03-02T12:42:31.671Z,64.45
2023-03-02T12:45:35.659Z,64.17
2023-03-02T12:48:33.675Z,64.92
2023-03-02T12:51:09.748Z,63.82
2023-03-02T12:54:07.662Z,64.11
2023-03-02T12:56:40.770Z,62.78
2023-03-02T12:59:31.643Z,62.40
2023-03-02T13:02:38.669Z,60.75
2023-03-02T13:05:41.677Z,61.25
2023-03-02T13:08:39.732Z,61.86
2023-03-02T13:11:37.681Z,62.45
2023-03-02T13:14:26.805Z,62.86
2023-03-02T13:17:28.673Z,62.99
2023-03-02T13:20:02.829Z,64.04
2023-03-02T13:22:49.693Z,61.88
2023-03-02T13:25:35.713Z,61.60
2023-03-02T13:28:41.665Z,63.43
2023-03-02T13:31:35.712Z,63.67
2023-03-02T13:34:31.669Z,63.74
2023-03-02T13:37:05.735Z,63.76
2023-03-02T13:40:01.739Z,64.73
2023-03-02T13:42:42.774Z,64.14
2023-03-02T13:45:36.668Z,65.96
2023-03-02T13:48:20.761Z,63.56
2023-03-02T13:51:11.669Z,64.81
2023-03-02T13:53:57.819Z,65.04
2023-03-02T13:56:50.647Z,64.96
2023-03-02T13:59:32.666Z,65.50
2023-03-02T14:02:39.668Z,67.05
2023-03-02T14:05:12.888Z,65.36
2023-03-02T14:08:01.742Z,64.77
2023-03-02T14:10:35.735Z,66.38
2023-03-02T14:13:27.708Z,65.85
2023-03-02T14:16:07.748Z,65.33
2023-03-02T14:18:57.729Z,66.89
2023-03-02T14:21:39.727Z,66.59
2023-03-02T14:24:26.617Z,66.74
2023-03-02T14:27:06.673Z,67.13
2023-03-02T14:29:55.982Z,67.30
2023-03-02T14:32:38.111Z,67.80
2023-03-02T14:35:31.683Z,68.06
2023-03-02T14:38:27.740Z,68.21
2023-03-02T14:41:30.610Z,68.58
2023-03-02T14:44:18.666Z,68.17
2023-03-02T14:46:59.723Z,67.96
2023-03-02T14:49:53.682Z,68.02
2023-03-02T14:52:47.729Z,68.42
2023-03-02T14:55:37.162Z,68.34
2023-03-02T14:58:26.694Z,68.12
2023-03-02T15:00:59.794Z,68.49
2023-03-02T15:03:46.650Z,69.10
2023-03-02T15:06:34.100Z,68.73
2023-03-02T15:09:20.668Z,68.98
2023-03-02T15:11:53.784Z,69.42
2023-03-02T15:14:40.696Z,69.52
2023-03-02T15:17:20.686Z,69.68
2023-03-02T15:20:14.677Z,70.15
2023-03-02T15:23:03.989Z,70.43
2023-03-02T15:25:38.858Z,70.46
2023-03-02T15:28:28.001Z,70.50
2023-03-02T15:31:08.712Z,70.40
2023-03-02T15:33:58.689Z,70.72
2023-03-02T15:36:31.772Z,70.97
2023-03-02T15:39:26.681Z,70.87
2023-03-02T15:42:20.674Z,71.23
2023-03-02T15:45:07.749Z,71.49
2023-03-02T15:47:49.744Z,71.92
2023-03-02T15:50:43.737Z,72.25
2023-03-02T15:53:30.695Z,72.54
2023-03-02T15:56:10.681Z,72.92
2023-03-02T15:58:57.719Z,73.37
2023-03-02T16:01:30.785Z,73.76
2023-03-02T16:04:17.736Z,74.42
2023-03-02T16:06:57.723Z,74.65
2023-03-02T16:09:44.719Z,75.85
2023-03-02T16:12:20.432Z,76.20
2023-03-02T16:15:06.741Z,76.97
2023-03-02T16:17:39.895Z,77.55
2023-03-02T16:20:26.711Z,78.46
2023-03-02T16:23:01.379Z,78.24
2023-03-02T16:25:50.712Z,78.52
2023-03-02T16:28:24.813Z,78.64
2023-03-02T16:31:14.722Z,78.62
2023-03-02T16:33:48.862Z,78.55
2023-03-02T16:36:35.728Z,79.35
2023-03-02T16:39:09.872Z,79.31
2023-03-02T16:41:57.725Z,79.56
2023-03-02T16:44:30.950Z,79.66
2023-03-02T16:47:17.729Z,79.80
2023-03-02T16:49:50.814Z,79.90
2023-03-02T16:52:37.734Z,80.36
2023-03-02T16:55:21.723Z,80.47
2023-03-02T16:58:15.742Z,81.24
2023-03-02T17:01:02.859Z,80.99
2023-03-02T17:03:35.918Z,81.50
2023-03-02T17:06:25.759Z,81.81
2023-03-02T17:08:58.822Z,82.18
2023-03-02T17:11:45.729Z,82.59
2023-03-02T17:14:18.841Z,82.55
2023-03-02T17:17:05.754Z,82.96
2023-03-02T17:19:39.836Z,83.00
2023-03-02T17:22:26.745Z,83.57
2023-03-02T17:25:01.963Z,83.50
2023-03-02T17:27:49.784Z,84.15
2023-03-02T17:30:29.770Z,83.97
2023-03-02T17:33:24.755Z,84.72
2023-03-02T17:36:13.748Z,84.65
2023-03-02T17:38:47.862Z,84.54
2023-03-02T17:41:35.786Z,85.06
2023-03-02T17:44:16.734Z,85.08
2023-03-02T17:47:03.733Z,85.22
2023-03-02T17:49:44.745Z,85.45
2023-03-02T17:52:38.724Z,85.58
2023-03-02T17:55:25.749Z,86.02
2023-03-02T17:57:58.931Z,86.09
2023-03-02T18:00:46.746Z,86.60
2023-03-02T18:03:26.810Z,86.59
2023-03-02T18:06:20.797Z,87.43
2023-03-02T18:09:07.744Z,87.62
2023-03-02T18:11:42.321Z,87.72
2023-03-02T18:14:28.756Z,88.20
2023-03-02T18:17:02.102Z,88.23
2023-03-02T18:19:48.812Z,88.85
2023-03-02T18:22:28.743Z,88.61
2023-03-02T18:25:22.871Z,88.61
2023-03-02T18:28:09.752Z,88.63
2023-03-02T18:30:49.765Z,88.76
2023-03-02T18:33:36.783Z,88.97
2023-03-02T18:36:09.893Z,88.88
2023-03-02T18:39:03.773Z,89.03
2023-03-02T18:41:57.748Z,89.54
2023-03-02T18:44:44.757Z,89.27
2023-03-02T18:47:22.890Z,89.72
2023-03-02T18:50:10.750Z,89.87
2023-03-02T18:52:50.755Z,90.00
2023-03-02T18:55:44.750Z,90.01
2023-03-02T18:58:32.314Z,90.64
2023-03-02T19:01:05.961Z,90.45
2023-03-02T19:03:52.830Z,90.64
2023-03-02T19:06:25.890Z,91.01
2023-03-02T19:09:12.789Z,91.16
2023-03-02T19:11:45.875Z,90.77
2023-03-02T19:14:32.831Z,90.91
2023-03-02T19:17:12.764Z,90.92
2023-03-02T19:19:59.767Z,90.81
2023-03-02T19:22:33.488Z,90.86
2023-03-02T19:25:19.789Z,91.15
2023-03-02T19:27:52.928Z,90.98
2023-03-02T19:30:40.766Z,91.21
2023-03-02T19:33:14.872Z,91.52
2023-03-02T19:36:01.790Z,92.03
2023-03-02T19:38:38.031Z,91.97
2023-03-02T19:41:26.777Z,92.20
2023-03-02T19:44:06.792Z,92.31
2023-03-02T19:47:00.834Z,92.24
2023-03-02T19:49:47.775Z,92.23
2023-03-02T19:52:27.804Z,92.38
2023-03-02T19:55:22.781Z,92.81
2023-03-02T19:58:11.790Z,92.70
2023-03-02T20:00:45.032Z,92.89
2023-03-02T20:03:31.781Z,93.00
2023-03-02T20:06:11.772Z,93.21
2023-03-02T20:09:05.790Z,93.45
2023-03-02T20:11:53.813Z,93.72
2023-03-02T20:14:34.344Z,93.77
2023-03-02T20:17:20.814Z,93.96
2023-03-02T20:20:02.786Z,93.83
2023-03-02T20:22:51.798Z,94.08
2023-03-02T20:25:25.892Z,94.07
2023-03-02T20:28:13.798Z,94.37
2023-03-02T20:30:59.983Z,94.36
2023-03-02T20:33:46.804Z,94.42
2023-03-02T20:36:36.128Z,95.30
2023-03-02T20:39:34.946Z,94.77
2023-03-02T20:42:39.792Z,94.77
2023-03-02T20:45:26.804Z,95.38
2023-03-02T20:48:07.783Z,95.17
2023-03-02T20:51:03.827Z,95.20
2023-03-02T20:53:53.813Z,95.08
2023-03-02T20:56:27.982Z,95.49
2023-03-02T20:59:14.822Z,95.82
2023-03-02T21:01:54.819Z,95.30
2023-03-02T21:04:48.848Z,95.76
2023-03-02T21:07:42.811Z,95.74
2023-03-02T21:10:34.811Z,96.04
2023-03-02T21:13:15.812Z,96.02
2023-03-02T21:16:02.845Z,96.11
2023-03-02T21:18:35.946Z,96.36
2023-03-02T21:21:32.534Z,96.58
2023-03-02T21:24:19.824Z,96.46
2023-03-02T21:27:07.828Z,96.60
2023-03-02T21:29:40.908Z,96.50
2023-03-02T21:32:27.865Z,96.95
2023-03-02T21:35:02.519Z,96.85
2023-03-02T21:37:49.898Z,97.20
2023-03-02T21:40:34.800Z,96.69
2023-03-02T21:43:28.806Z,97.11
2023-03-02T21:46:19.951Z,97.11
2023-03-02T21:48:53.953Z,97.34
2023-03-02T21:51:43.822Z,97.32
2023-03-02T21:54:23.809Z,97.37
2023-03-02T21:57:10.852Z,97.66
2023-03-02T21:59:50.841Z,97.57
2023-03-02T22:02:38.985Z,97.76
2023-03-02T22:05:12.944Z,97.66
2023-03-02T22:07:59.885Z,97.74
2023-03-02T22:10:58.823Z,97.84
2023-03-02T22:13:52.846Z,97.63
2023-03-02T22:16:42.834Z,98.00
2023-03-02T22:19:41.810Z,98.29
2023-03-02T22:22:33.832Z,98.10
2023-03-02T22:25:06.922Z,98.08
2023-03-02T22:27:53.834Z,98.22
2023-03-02T22:30:38.831Z,98.58
2023-03-02T22:33:38.878Z,98.39
2023-03-02T22:36:29.830Z,98.40
2023-03-02T22:39:11.936Z,98.64
2023-03-02T22:42:05.850Z,98.88
2023-03-02T22:44:38.992Z,98.59
2023-03-02T22:47:26.847Z,98.82
2023-03-02T22:50:28.852Z,98.85
2023-03-02T22:53:35.882Z,99.08
2023-03-02T22:56:56.864Z,99.12
2023-03-02T22:59:50.844Z,99.19
2023-03-02T23:02:37.847Z,99.03
2023-03-02T23:05:29.003Z,98.83
2023-03-02T23:08:29.850Z,99.21
2023-03-02T23:11:11.847Z,99.22
2023-03-02T23:13:59.864Z,99.50
2023-03-02T23:16:41.909Z,99.22
2023-03-02T23:19:28.850Z,99.54
2023-03-02T23:22:09.850Z,99.56
2023-03-02T23:25:03.874Z,99.75
2023-03-02T23:27:50.856Z,99.61
2023-03-02T23:30:23.959Z,99.49
2023-03-02T23:33:10.850Z,99.73
2023-03-02T23:35:44.005Z,99.90
2023-03-02T23:38:30.867Z,99.90
2023-03-02T23:41:03.997Z,99.58
2023-03-02T23:43:50.852Z,99.81
2023-03-02T23:46:30.862Z,99.92
2023-03-02T23:49:17.850Z,100.00
2023-03-02T23:51:58.882Z,99.76
2023-03-02T23:54:45.856Z,99.78
2023-03-02T23:57:25.843Z,100.00
